createdAt,value
2018-01-27T00:01:26.861Z,16.53
2018-01-27T00:03:54.669Z,21.50
2018-01-27T00:06:21.612Z,14.40
2018-01-27T00:08:48.626Z,19.03
2018-01-27T00:11:14.859Z,19.47
2018-01-27T00:13:50.500Z,23.80
2018-01-27T00:16:18.078Z,21.13
2018-01-27T00:18:45.161Z,18.77
2018-01-27T00:21:12.126Z,19.30
2018-01-27T00:23:38.316Z,19.87
2018-01-27T00:26:04.503Z,21.60
2018-01-27T00:28:31.521Z,23.03
2018-01-27T00:30:58.460Z,21.80
2018-01-27T00:33:25.398Z,20.83
2018-01-27T00:35:51.650Z,24.30
2018-01-27T00:38:19.790Z,20.30
2018-01-27T00:40:46.003Z,19.40
2018-01-27T00:43:12.262Z,17.83
2018-01-27T00:45:39.214Z,25.77
2018-01-27T00:48:05.459Z,20.53
2018-01-27T00:50:31.694Z,19.70
2018-01-27T00:52:57.947Z,25.90
2018-01-27T00:55:24.162Z,21.37
2018-01-27T00:57:51.139Z,24.03
2018-01-27T01:00:18.202Z,23.10
2018-01-27T01:02:45.180Z,21.13
2018-01-27T01:05:11.410Z,21.13
2018-01-27T01:07:37.632Z,19.67
2018-01-27T01:10:04.584Z,21.40
2018-01-27T01:12:32.474Z,22.70
2018-01-27T01:14:58.667Z,24.03
2018-01-27T01:17:25.854Z,22.13
2018-01-27T01:19:52.669Z,23.03
2018-01-27T01:22:19.584Z,23.23
2018-01-27T01:34:35.778Z,25.63
2018-01-27T01:37:02.698Z,20.23
2018-01-27T01:39:29.604Z,20.57
2018-01-27T01:41:55.824Z,24.73
2018-01-27T01:44:26.020Z,23.40
2018-01-27T01:46:52.246Z,20.53
2018-01-27T01:49:23.259Z,25.07
2018-01-27T01:51:51.111Z,24.57
2018-01-27T01:54:17.569Z,23.20
2018-01-27T01:56:44.579Z,28.93
2018-01-27T01:59:12.081Z,23.20
2018-01-27T02:01:38.271Z,22.07
2018-01-27T02:13:49.560Z,24.47
2018-01-27T02:16:16.588Z,18.57
2018-01-27T02:18:42.753Z,23.27
2018-01-27T02:21:08.986Z,21.57
2018-01-27T02:23:35.420Z,21.10
2018-01-27T02:26:01.681Z,22.97
2018-01-27T02:28:27.868Z,26.47
2018-01-27T02:30:54.791Z,21.60
2018-01-27T02:33:20.994Z,24.50
2018-01-27T02:35:47.233Z,25.47
2018-01-27T02:38:13.460Z,18.13
2018-01-27T02:40:39.689Z,23.13
2018-01-27T02:43:05.922Z,21.00
2018-01-27T02:45:32.089Z,20.63
2018-01-27T02:47:58.250Z,22.57
2018-01-27T02:50:24.553Z,24.53
2018-01-27T02:52:50.727Z,25.50
2018-01-27T02:55:17.182Z,27.97
2018-01-27T02:57:44.840Z,23.87
2018-01-27T03:00:11.719Z,19.13
2018-01-27T03:12:28.693Z,28.53
2018-01-27T03:14:54.908Z,25.73
2018-01-27T03:17:21.115Z,18.47
2018-01-27T03:20:02.334Z,22.27
2018-01-27T03:22:29.260Z,20.07
2018-01-27T03:24:55.789Z,23.53
2018-01-27T03:27:21.960Z,23.87
2018-01-27T03:29:49.010Z,17.40
2018-01-27T03:32:15.216Z,17.90
2018-01-27T03:34:42.930Z,26.23
2018-01-27T03:37:09.198Z,27.10
2018-01-27T03:39:36.467Z,28.70
2018-01-27T03:42:02.656Z,24.73
2018-01-27T03:44:28.915Z,25.17
2018-01-27T03:46:56.269Z,19.40
2018-01-27T03:49:23.519Z,16.43
2018-01-27T03:51:50.510Z,26.53
2018-01-27T03:54:17.453Z,21.77
2018-01-27T03:56:44.877Z,23.80
2018-01-27T03:59:13.396Z,23.53
2018-01-27T04:01:40.001Z,20.07
2018-01-27T04:04:07.680Z,29.33
2018-01-27T04:06:34.022Z,21.63
2018-01-27T04:09:00.258Z,18.37
2018-01-27T04:11:28.697Z,29.77
2018-01-27T04:13:55.610Z,28.97
2018-01-27T04:16:22.069Z,25.60
2018-01-27T04:18:48.976Z,26.57
2018-01-27T04:21:15.136Z,26.53
2018-01-27T04:23:41.316Z,27.83
2018-01-27T04:26:08.322Z,34.03
2018-01-27T04:28:36.061Z,30.43
2018-01-27T04:31:02.330Z,35.60
2018-01-27T04:33:28.564Z,38.63
2018-01-27T04:35:55.784Z,32.73
2018-01-27T04:38:22.610Z,32.10
2018-01-27T04:40:48.773Z,26.47
2018-01-27T04:43:15.741Z,29.80
2018-01-27T04:45:42.107Z,30.33
2018-01-27T04:48:08.462Z,35.50
2018-01-27T04:50:34.629Z,31.00
2018-01-27T04:53:01.197Z,31.43
2018-01-27T04:55:28.750Z,29.17
2018-01-27T04:57:55.148Z,26.43
2018-01-27T05:00:22.149Z,29.80
2018-01-27T05:02:48.334Z,29.60
2018-01-27T05:05:15.973Z,28.53
2018-01-27T05:07:42.554Z,32.37
2018-01-27T05:10:08.797Z,29.77
2018-01-27T05:12:34.993Z,30.60
2018-01-27T05:15:01.402Z,30.00
2018-01-27T05:17:29.233Z,29.20
2018-01-27T05:19:55.579Z,22.70
2018-01-27T05:22:21.762Z,26.70
2018-01-27T05:34:37.989Z,20.17
2018-01-27T05:37:04.209Z,18.73
2018-01-27T05:39:31.083Z,22.10
2018-01-27T05:41:57.997Z,21.97
2018-01-27T05:44:24.181Z,26.50
2018-01-27T05:46:50.756Z,24.37
2018-01-27T05:49:16.942Z,18.97
2018-01-27T05:51:43.894Z,20.40
2018-01-27T05:54:10.781Z,23.13
2018-01-27T05:56:36.950Z,18.83
2018-01-27T05:59:03.188Z,23.37
2018-01-27T06:01:29.836Z,23.20
2018-01-27T06:03:56.089Z,17.80
2018-01-27T06:06:22.278Z,22.33
2018-01-27T06:08:48.495Z,22.73
2018-01-27T06:11:15.433Z,29.43
2018-01-27T06:13:42.419Z,20.07
2018-01-27T06:16:08.702Z,19.17
2018-01-27T06:18:35.618Z,23.10
2018-01-27T06:21:02.331Z,23.47
2018-01-27T06:23:28.518Z,21.57
2018-01-27T06:25:55.443Z,24.80
2018-01-27T06:28:22.377Z,26.83
2018-01-27T06:30:48.556Z,25.10
2018-01-27T06:33:16.614Z,25.23
2018-01-27T06:35:44.756Z,23.77
2018-01-27T06:38:11.037Z,28.63
2018-01-27T06:40:37.182Z,26.47
2018-01-27T06:43:03.410Z,27.43
2018-01-27T06:45:29.595Z,25.43
2018-01-27T06:47:56.538Z,23.30
2018-01-27T06:50:23.467Z,26.40
2018-01-27T06:52:50.586Z,27.23
2018-01-27T06:55:16.918Z,24.70
2018-01-27T06:57:43.118Z,28.63
2018-01-27T07:00:10.237Z,23.23
2018-01-27T07:02:36.391Z,27.67
2018-01-27T07:05:03.351Z,31.27
2018-01-27T07:07:29.542Z,29.40
2018-01-27T07:09:56.486Z,26.50
2018-01-27T07:12:23.417Z,26.23
2018-01-27T07:14:49.664Z,28.90
2018-01-27T07:17:15.803Z,23.63
2018-01-27T07:19:42.747Z,27.93
2018-01-27T07:22:09.675Z,23.83
2018-01-27T07:24:35.907Z,26.83
2018-01-27T07:27:04.798Z,20.23
2018-01-27T07:29:31.222Z,25.33
2018-01-27T07:31:57.401Z,23.53
2018-01-27T07:34:23.597Z,24.67
2018-01-27T07:36:50.540Z,29.23
2018-01-27T07:39:17.431Z,22.93
2018-01-27T07:41:43.644Z,20.63
2018-01-27T07:44:09.799Z,23.63
2018-01-27T07:46:35.984Z,23.40
2018-01-27T07:49:02.246Z,30.23
2018-01-27T07:51:28.479Z,26.77
2018-01-27T07:53:54.696Z,31.10
2018-01-27T07:56:20.887Z,24.40
2018-01-27T07:58:47.821Z,26.60
2018-01-27T08:01:15.829Z,34.77
2018-01-27T08:03:42.013Z,26.70
2018-01-27T08:06:08.215Z,25.17
2018-01-27T08:08:35.473Z,30.23
2018-01-27T08:11:01.707Z,29.80
2018-01-27T08:13:28.120Z,28.40
2018-01-27T08:15:55.023Z,28.37
2018-01-27T08:18:22.392Z,28.93
2018-01-27T08:20:49.640Z,26.53
2018-01-27T08:23:15.894Z,23.87
2018-01-27T08:25:42.049Z,27.47
2018-01-27T08:28:08.363Z,29.37
2018-01-27T08:30:35.049Z,22.23
2018-01-27T08:33:01.282Z,27.27
2018-01-27T08:35:28.797Z,32.17
2018-01-27T08:37:55.028Z,30.00
2018-01-27T08:40:21.229Z,36.23
2018-01-27T08:42:49.058Z,33.07
2018-01-27T08:45:17.787Z,30.17
2018-01-27T08:47:43.954Z,33.73
2018-01-27T08:50:10.171Z,31.17
2018-01-27T08:52:36.428Z,29.43
2018-01-27T08:55:02.668Z,33.00
2018-01-27T08:57:28.883Z,36.03
2018-01-27T08:59:55.098Z,32.23
2018-01-27T09:02:22.007Z,30.70
2018-01-27T09:04:48.217Z,30.47
2018-01-27T09:07:15.217Z,31.20
2018-01-27T09:09:41.401Z,30.10
2018-01-27T09:12:07.722Z,33.33
2018-01-27T09:14:33.920Z,32.83
2018-01-27T09:17:00.392Z,29.30
2018-01-27T09:19:28.666Z,34.07
2018-01-27T09:21:55.659Z,33.83
2018-01-27T09:24:22.531Z,34.90
2018-01-27T09:26:52.154Z,33.50
2018-01-27T09:29:19.133Z,30.93
2018-01-27T09:31:45.368Z,39.93
2018-01-27T09:34:13.608Z,28.13
2018-01-27T09:36:40.579Z,26.60
2018-01-27T09:39:07.872Z,29.80
2018-01-27T09:41:34.528Z,42.60
2018-01-27T09:44:00.739Z,34.93
2018-01-27T09:46:27.292Z,37.67
2018-01-27T09:48:53.477Z,31.90
2018-01-27T09:51:20.217Z,49.50
2018-01-27T09:53:46.507Z,44.33
2018-01-27T09:56:13.412Z,26.23
2018-01-27T09:58:40.127Z,32.37
2018-01-27T10:01:08.069Z,30.20
2018-01-27T10:03:34.246Z,33.20
2018-01-27T10:06:01.384Z,35.40
2018-01-27T10:08:34.528Z,30.87
2018-01-27T10:11:01.522Z,28.57
2018-01-27T10:13:27.701Z,28.83
2018-01-27T10:15:56.496Z,28.10
2018-01-27T10:18:23.487Z,35.53
2018-01-27T10:20:49.688Z,31.10
2018-01-27T10:23:17.235Z,32.27
2018-01-27T10:25:45.725Z,28.13
2018-01-27T10:28:12.671Z,36.80
2018-01-27T10:30:39.648Z,31.77
2018-01-27T10:33:05.841Z,38.13
2018-01-27T10:35:32.787Z,32.33
2018-01-27T10:37:59.873Z,32.60
2018-01-27T10:40:26.066Z,43.20
2018-01-27T10:42:52.945Z,35.37
2018-01-27T10:45:19.386Z,46.97
2018-01-27T10:47:45.598Z,36.20
2018-01-27T10:50:11.747Z,34.10
2018-01-27T10:52:39.653Z,36.30
2018-01-27T10:55:07.542Z,40.37
2018-01-27T10:57:34.677Z,47.23
2018-01-27T11:00:02.483Z,46.23
2018-01-27T11:02:30.365Z,49.20
2018-01-27T11:04:57.485Z,41.00
2018-01-27T12:29:20.788Z,62.73
2018-01-27T12:31:47.064Z,60.83
2018-01-27T12:34:14.430Z,59.10
2018-01-27T12:36:41.127Z,63.37
2018-01-27T12:39:09.020Z,63.40
2018-01-27T12:41:35.215Z,65.50
2018-01-27T12:44:01.789Z,65.47
2018-01-27T12:46:27.992Z,64.80
2018-01-27T12:48:54.955Z,74.93
2018-01-27T12:51:21.146Z,81.37
2018-01-27T12:53:47.350Z,81.20
2018-01-27T12:56:13.602Z,82.17
2018-01-27T12:58:40.906Z,72.97
2018-01-27T13:01:07.130Z,67.17
2018-01-27T13:03:33.345Z,72.57
2018-01-27T13:06:00.290Z,74.23
2018-01-27T13:08:28.070Z,79.03
2018-01-27T13:10:54.360Z,68.70
2018-01-27T13:13:20.657Z,78.07
2018-01-27T13:15:46.844Z,65.67
2018-01-27T13:18:13.827Z,66.23
2018-01-27T13:20:40.059Z,70.17
2018-01-27T13:23:07.015Z,60.63
2018-01-27T13:25:33.238Z,60.67
2018-01-27T13:27:59.446Z,64.87
2018-01-27T13:30:25.632Z,67.00
2018-01-27T13:32:52.639Z,68.20
2018-01-27T13:35:18.831Z,68.70
2018-01-27T13:37:45.832Z,70.27
2018-01-27T13:50:02.096Z,77.83
2018-01-27T13:52:28.322Z,71.87
2018-01-27T13:54:54.548Z,74.83
2018-01-27T13:57:20.793Z,88.27
2018-01-27T14:09:36.988Z,70.30
2018-01-27T14:12:03.980Z,79.30
2018-01-27T14:14:30.189Z,84.30
2018-01-27T14:16:56.380Z,76.03
2018-01-27T14:19:23.431Z,78.27
2018-01-27T14:21:50.364Z,77.47
2018-01-27T14:24:17.562Z,82.10
2018-01-27T14:26:43.797Z,84.53
2018-01-27T14:29:10.967Z,80.47
2018-01-27T14:31:37.457Z,89.73
2018-01-27T14:34:04.555Z,74.87
2018-01-27T14:36:37.732Z,79.63
2018-01-27T14:39:04.752Z,70.53
2018-01-27T14:41:32.022Z,74.63
2018-01-27T14:43:58.971Z,70.40
2018-01-27T14:46:25.185Z,68.83
2018-01-27T14:48:52.538Z,86.97
2018-01-27T14:51:18.897Z,80.67
2018-01-27T14:53:45.179Z,78.73
2018-01-27T14:56:12.334Z,70.30
2018-01-27T14:58:38.551Z,70.30
2018-01-27T15:01:05.643Z,83.17
2018-01-27T15:03:31.817Z,68.90
2018-01-27T15:05:58.900Z,70.83
2018-01-27T15:08:25.147Z,72.17
2018-01-27T15:10:51.323Z,66.57
2018-01-27T15:13:20.047Z,70.67
2018-01-27T15:15:46.265Z,77.70
2018-01-27T15:18:13.422Z,84.37
2018-01-27T15:20:39.629Z,73.27
2018-01-27T15:23:06.616Z,66.57
2018-01-27T15:25:32.804Z,71.50
2018-01-27T15:27:59.229Z,71.73
2018-01-27T15:30:26.394Z,77.73
2018-01-27T15:32:53.300Z,70.13
2018-01-27T15:35:19.495Z,69.33
2018-01-27T15:37:46.733Z,76.47
2018-01-27T15:40:12.947Z,71.40
2018-01-27T15:42:39.995Z,68.40
2018-01-27T15:45:07.668Z,73.10
2018-01-27T15:47:35.025Z,66.70
2018-01-27T15:50:01.582Z,63.50
2018-01-27T15:52:28.602Z,62.57
2018-01-27T15:54:55.543Z,72.40
2018-01-27T15:57:22.139Z,62.90
2018-01-27T15:59:48.326Z,66.80
2018-01-27T16:02:15.238Z,60.23
2018-01-27T16:04:41.449Z,59.40
2018-01-27T16:07:07.608Z,67.70
2018-01-27T16:09:33.802Z,75.60
2018-01-27T16:12:00.359Z,66.63
2018-01-27T16:14:26.737Z,62.27
2018-01-27T16:16:52.948Z,75.27
2018-01-27T16:19:19.875Z,69.20
2018-01-27T16:21:46.082Z,79.13
2018-01-27T16:24:12.370Z,79.20
2018-01-27T16:26:38.607Z,79.30
2018-01-27T16:29:04.801Z,76.10
2018-01-27T16:31:31.801Z,77.97
2018-01-27T16:33:58.016Z,81.90
2018-01-27T16:36:24.334Z,84.17
2018-01-27T16:38:50.545Z,81.47
2018-01-27T16:41:18.463Z,73.77
2018-01-27T16:43:44.730Z,69.60
2018-01-27T16:46:10.964Z,92.83
2018-01-27T16:48:37.956Z,71.87
2018-01-27T16:51:05.061Z,76.90
2018-01-27T16:53:31.251Z,72.83
2018-01-27T16:55:57.445Z,69.63
2018-01-27T16:58:23.642Z,70.20
2018-01-27T17:00:50.589Z,80.47
2018-01-27T17:03:16.811Z,72.23
2018-01-27T17:05:43.019Z,75.13
2018-01-27T17:08:09.229Z,76.07
2018-01-27T17:10:50.372Z,67.87
2018-01-27T17:13:16.574Z,78.30
2018-01-27T17:15:43.177Z,77.57
2018-01-27T17:18:09.378Z,71.57
2018-01-27T17:20:35.569Z,65.77
2018-01-27T17:23:02.548Z,67.30
2018-01-27T17:25:29.145Z,69.17
2018-01-27T17:27:55.375Z,68.87
2018-01-27T17:30:21.650Z,70.37
2018-01-27T17:32:48.224Z,69.70
2018-01-27T17:35:14.499Z,67.63
2018-01-27T17:37:41.462Z,67.17
2018-01-27T17:40:08.988Z,65.97
2018-01-27T17:42:37.730Z,73.10
2018-01-27T17:45:04.316Z,70.60
2018-01-27T17:47:30.541Z,80.57
2018-01-27T17:49:56.721Z,78.60
2018-01-27T17:52:23.013Z,84.43
2018-01-27T17:54:49.990Z,72.83
2018-01-27T17:57:16.225Z,94.07
2018-01-27T17:59:42.453Z,74.97
2018-01-27T18:02:08.651Z,63.57
2018-01-27T18:04:39.331Z,83.47
2018-01-27T18:07:05.682Z,79.70
2018-01-27T18:09:32.676Z,73.20
2018-01-27T18:11:58.921Z,74.57
2018-01-27T18:14:25.189Z,92.30
2018-01-27T18:16:51.402Z,88.47
2018-01-27T18:19:18.414Z,74.70
2018-01-27T18:21:44.645Z,90.53
2018-01-27T18:33:56.742Z,74.70
2018-01-27T18:36:22.979Z,95.20
2018-01-27T18:38:49.205Z,79.97
2018-01-27T18:41:15.422Z,90.33
2018-01-27T18:43:41.679Z,75.77
2018-01-27T18:46:08.724Z,85.13
2018-01-27T18:48:34.950Z,92.10
2018-01-27T18:51:01.745Z,90.43
2018-01-27T18:53:27.963Z,92.00
2018-01-27T18:55:55.022Z,92.33
2018-01-27T18:58:21.237Z,78.97
2018-01-27T19:00:48.241Z,80.17
2018-01-27T19:03:14.474Z,87.03
2018-01-27T19:05:53.246Z,82.53
2018-01-27T19:08:20.281Z,83.57
2018-01-27T19:10:47.297Z,84.13
2018-01-27T19:13:13.973Z,78.20
2018-01-27T19:15:40.975Z,74.53
2018-01-27T19:18:07.145Z,82.90
2018-01-27T19:20:34.106Z,88.17
2018-01-27T19:23:00.296Z,90.87
2018-01-27T19:25:26.524Z,77.67
2018-01-27T19:27:52.751Z,84.10
2018-01-27T19:30:19.044Z,68.00
2018-01-27T19:32:46.010Z,62.07
2018-01-27T19:35:12.309Z,50.10
2018-01-27T19:37:40.208Z,51.73
2018-01-27T19:40:06.385Z,47.17
2018-01-27T19:42:33.636Z,40.17
2018-01-27T19:45:00.639Z,33.50
2018-01-27T19:47:26.854Z,31.87
2018-01-27T19:49:53.062Z,27.20
2018-01-27T19:52:20.229Z,25.30
2018-01-27T19:54:46.440Z,26.10
2018-01-27T19:57:12.940Z,29.00
2018-01-27T19:59:39.982Z,24.43
2018-01-27T20:02:06.462Z,23.30
2018-01-27T20:04:32.677Z,25.57
2018-01-27T20:06:58.899Z,23.20
2018-01-27T20:09:25.897Z,22.60
2018-01-27T20:11:52.147Z,26.20
2018-01-27T20:14:18.412Z,21.10
2018-01-27T20:16:44.738Z,21.47
2018-01-27T20:19:11.700Z,23.67
2018-01-27T20:21:37.942Z,22.90
2018-01-27T20:24:04.209Z,21.07
2018-01-27T20:26:30.470Z,22.27
2018-01-27T20:28:57.462Z,28.73
2018-01-27T20:31:24.592Z,23.20
2018-01-27T20:33:51.448Z,25.00
2018-01-27T20:36:17.676Z,25.97
2018-01-27T20:38:43.887Z,19.33
2018-01-27T20:41:10.185Z,28.17
2018-01-27T20:43:37.106Z,23.97
2018-01-27T20:46:03.368Z,26.57
2018-01-27T20:48:30.379Z,29.67
2018-01-27T20:50:56.654Z,29.50
2018-01-27T20:53:23.656Z,28.47
2018-01-27T20:55:49.977Z,28.70
2018-01-27T20:58:16.188Z,33.23
2018-01-27T21:00:42.813Z,30.43
2018-01-27T21:16:09.921Z,28.60
2018-01-27T21:18:37.246Z,33.43
2018-01-27T21:21:03.471Z,32.93
2018-01-27T21:23:29.765Z,31.10
2018-01-27T21:25:56.759Z,32.00
2018-01-27T21:28:22.933Z,33.63
2018-01-27T21:30:49.936Z,31.43
2018-01-27T21:33:16.200Z,35.70
2018-01-27T21:35:43.254Z,34.47
2018-01-27T21:38:09.529Z,35.57
2018-01-27T21:40:35.792Z,34.00
2018-01-27T21:43:02.016Z,33.10
2018-01-27T21:45:28.238Z,32.90
2018-01-27T21:47:54.444Z,34.10
2018-01-27T21:50:21.013Z,32.67
2018-01-27T21:52:48.195Z,32.30
2018-01-27T21:55:15.321Z,30.30
2018-01-27T21:57:41.587Z,33.77
2018-01-27T22:00:07.816Z,33.17
2018-01-27T22:02:34.957Z,31.93
2018-01-27T22:05:01.888Z,30.70
2018-01-27T22:07:29.722Z,40.50
2018-01-27T22:09:55.945Z,36.27
2018-01-27T22:12:22.157Z,37.93
2018-01-27T22:14:49.238Z,34.40
2018-01-27T22:17:15.550Z,34.40
2018-01-27T22:19:41.786Z,36.13
2018-01-27T22:22:08.001Z,39.47
2018-01-27T22:24:34.266Z,31.43
2018-01-27T22:27:00.489Z,33.10
2018-01-27T22:29:27.303Z,35.57
2018-01-27T22:31:53.654Z,35.63
2018-01-27T22:34:19.915Z,38.97
2018-01-27T22:36:46.858Z,34.53
2018-01-27T22:39:13.855Z,34.27
2018-01-27T22:41:41.840Z,34.87
2018-01-27T22:44:08.685Z,32.20
2018-01-27T22:46:34.934Z,40.30
2018-01-27T22:49:01.190Z,37.93
2018-01-27T22:51:27.527Z,33.33
2018-01-27T22:53:53.722Z,37.13
2018-01-27T22:56:19.915Z,36.10
2018-01-27T22:58:46.159Z,39.50
2018-01-27T23:01:18.550Z,37.13
2018-01-27T23:03:44.781Z,36.50
2018-01-27T23:06:11.016Z,39.57
2018-01-27T23:08:37.988Z,39.33
2018-01-27T23:11:04.973Z,35.37
2018-01-27T23:13:32.519Z,34.77
2018-01-27T23:15:58.847Z,34.03
2018-01-27T23:18:26.615Z,30.17
2018-01-27T23:20:52.798Z,30.73
2018-01-27T23:23:18.998Z,31.50
2018-01-27T23:25:45.682Z,32.57
2018-01-27T23:28:12.710Z,28.33
2018-01-27T23:30:38.968Z,24.60
2018-01-27T23:33:05.203Z,24.57
2018-01-27T23:35:31.364Z,29.30
2018-01-27T23:37:57.570Z,26.53
2018-01-27T23:40:26.077Z,23.40
2018-01-27T23:42:52.354Z,24.57
2018-01-27T23:45:19.301Z,20.77
2018-01-27T23:47:46.277Z,24.03
2018-01-27T23:50:13.437Z,25.90
2018-01-27T23:52:40.006Z,22.13
2018-01-27T23:55:06.197Z,19.17
2018-01-27T23:57:32.433Z,20.43
2018-01-27T23:59:59.381Z,19.77
